KMFI/MFI METAR and TAF weather

Enter ICAO airport designator
Station Type Date Time Source
KMFI METAR 2019/10/18 10:54 UTC NOAA

KMFI 181054Z AUTO 15007KT 10SM CLR 03/01 A2997 RMK AO2 SLP158 T00330011


Station Type Date Time Source
KMFI Decoded METAR 2019/10/18 10:54 UTC NOAA

MARSHFIELD MUNICIPAL AIRPORT, WI, United States (KMFI) 44-38N 90-11W 379M
Oct 18, 2019 - 06:54 AM EDT / 2019.10.18 1054 UTC
Wind: from the SSE (150 degrees) at 8 MPH (7 KT):0
Visibility: 10 mile(s):0
Sky conditions: clear
Temperature: 37.9 F (3.3 C)
Dew Point: 34.0 F (1.1 C)
Relative Humidity: 85%
Pressure (altimeter): 29.97 in. Hg (1014 hPa)
ob: KMFI 181054Z AUTO 15007KT 10SM CLR 03/01 A2997 RMK AO2 SLP158 T00330011
cycle: 11

Station Type Date Time Source
KMFI TAF UTC NOAA

Error!

Example: see airport list